Time;durP1;ratioP1;P1;durP2;ratioP2;P2;SDS_P1;SDS_P2;PMS_P1;PMS_P2;Temp;Humidity;BMP_temperature;BMP_pressure;BME280_temperature;BME280_humidity;BME280_pressure;Samples;Min_cycle;Max_cycle;Signal;HPM_P1;HPM_P2
2021/12/27 00:00:16;;;;;;;117.72;28.88;;;;;;;-8.88;75.04;99139.25;8457626;27;20044;-88
2021/12/27 00:04:37;;;;;;;113.55;31.00;;;;;;;-8.93;74.72;99136.34;8430257;28;20118;-83
2021/12/27 00:08:41;;;;;;;120.60;28.63;;;;;;;-8.93;74.59;99140.81;8431322;27;20054;-84
2021/12/27 00:12:42;;;;;;;126.68;29.08;;;;;;;-8.95;74.50;99132.31;8436606;27;20052;-85
2021/12/27 00:16:43;;;;;;;115.07;28.35;;;;;;;-8.99;74.52;99129.28;8473033;27;20084;-82
2021/12/27 00:20:43;;;;;;;125.60;30.10;;;;;;;-9.01;74.81;99129.44;8469207;27;20432;-87
2021/12/27 00:24:47;;;;;;;117.97;30.05;;;;;;;-9.10;74.90;99133.16;8445611;28;20390;-83
2021/12/27 00:28:47;;;;;;;121.05;30.15;;;;;;;-9.13;74.71;99125.66;8473270;27;20058;-87
2021/12/27 00:32:49;;;;;;;109.10;28.20;;;;;;;-9.11;74.76;99128.91;8463616;27;20378;-81
2021/12/27 00:36:50;;;;;;;121.47;30.02;;;;;;;-9.11;74.46;99123.69;8437710;28;20052;-81
2021/12/27 00:40:51;;;;;;;129.65;30.30;;;;;;;-9.08;74.82;99125.94;8463034;27;20126;-84
2021/12/27 00:44:52;;;;;;;118.10;27.75;;;;;;;-9.11;74.48;99115.84;8464822;27;20770;-86
2021/12/27 00:48:53;;;;;;;101.63;28.25;;;;;;;-9.06;74.51;99118.72;8464741;27;20039;-84
2021/12/27 00:52:54;;;;;;;103.38;27.08;;;;;;;-9.09;74.25;99121.69;8464573;28;20051;-86
2021/12/27 00:56:55;;;;;;;108.25;27.02;;;;;;;-9.09;74.26;99126.91;8464493;28;20143;-85
2021/12/27 01:00:56;;;;;;;114.97;29.52;;;;;;;-9.08;74.11;99107.63;8481668;27;20177;-88
2021/12/27 01:04:57;;;;;;;109.00;27.52;;;;;;;-9.01;73.98;99103.28;8454790;28;20496;-83
2021/12/27 01:08:57;;;;;;;105.95;27.00;;;;;;;-9.04;73.81;99119.31;8427896;28;20138;-87
2021/12/27 01:17:17;;;;;;;99.97;26.48;;;;;;;-9.10;74.19;99119.28;8458124;27;20082;-88
2021/12/27 01:21:22;;;;;;;113.65;26.75;;;;;;;-9.12;74.31;99116.81;8455007;27;20134;-88
2021/12/27 01:25:24;;;;;;;103.85;26.30;;;;;;;-9.12;74.12;99111.59;8377618;28;20525;-86
2021/12/27 01:29:25;;;;;;;103.97;25.88;;;;;;;-9.12;73.88;99110.78;8466866;27;20049;-85
2021/12/27 01:33:25;;;;;;;112.05;27.13;;;;;;;-9.13;74.61;99109.16;8453976;27;20067;-85
2021/12/27 01:37:26;;;;;;;103.75;27.02;;;;;;;-9.16;74.19;99105.13;8479831;27;20047;-87
2021/12/27 01:41:27;;;;;;;109.15;25.95;;;;;;;-9.17;74.33;99106.09;8487267;27;20143;-87
2021/12/27 01:45:28;;;;;;;101.03;27.45;;;;;;;-9.26;74.58;99101.97;8463163;28;20040;-88
2021/12/27 01:49:29;;;;;;;84.95;24.88;;;;;;;-9.27;74.61;99113.41;8453291;27;20184;-87
2021/12/27 01:53:32;;;;;;;105.88;25.83;;;;;;;-9.31;74.67;99101.72;8471422;27;20043;-85
2021/12/27 01:57:34;;;;;;;95.35;25.98;;;;;;;-9.35;74.49;99105.66;8446673;27;20046;-86
2021/12/27 02:01:35;;;;;;;102.72;26.02;;;;;;;-9.32;74.73;99094.84;8450134;28;20067;-84
2021/12/27 02:05:36;;;;;;;95.50;25.58;;;;;;;-9.28;74.50;99085.63;8455073;28;20052;-84
2021/12/27 02:09:48;;;;;;;106.55;27.85;;;;;;;-9.33;74.82;99088.00;8458553;28;20043;-85
2021/12/27 02:13:49;;;;;;;106.35;24.75;;;;;;;-9.39;74.18;99078.25;8435662;28;20059;-82
2021/12/27 02:17:50;;;;;;;103.22;25.65;;;;;;;-9.41;74.34;99072.41;8431523;28;20485;-85
2021/12/27 02:21:50;;;;;;;94.80;21.85;;;;;;;-9.35;74.63;99074.28;8435893;28;20044;-86
2021/12/27 02:25:51;;;;;;;79.35;20.60;;;;;;;-9.26;74.43;99067.97;8435922;28;20044;-85
2021/12/27 02:29:52;;;;;;;75.78;19.77;;;;;;;-9.17;74.07;99066.88;8435227;28;20100;-87
2021/12/27 02:33:53;;;;;;;87.82;20.50;;;;;;;-9.07;74.05;99072.63;8435137;28;20533;-88
2021/12/27 02:37:56;;;;;;;77.18;18.58;;;;;;;-9.07;73.70;99064.75;8428186;28;20072;-82
2021/12/27 02:41:57;;;;;;;95.93;21.20;;;;;;;-9.07;73.70;99064.75;8431349;28;20416;-87
2021/12/27 02:46:00;;;;;;;95.03;23.52;;;;;;;-9.15;73.63;99059.66;8431803;28;20055;-84
2021/12/27 02:50:01;;;;;;;94.43;22.73;;;;;;;-9.19;73.86;99058.38;8369753;28;20040;-88
2021/12/27 02:54:02;;;;;;;87.10;23.85;;;;;;;-9.25;74.41;99059.09;8394002;28;20405;-86
2021/12/27 02:58:03;;;;;;;80.65;22.45;;;;;;;-9.22;74.01;99048.28;8399635;28;20261;-85
2021/12/27 03:02:04;;;;;;;97.95;24.80;;;;;;;-9.26;74.57;99047.06;8401977;28;20101;-89
2021/12/27 03:06:06;;;;;;;106.85;25.05;;;;;;;-9.31;74.64;99038.94;8387474;28;20099;-87
2021/12/27 03:10:09;;;;;;;107.70;24.77;;;;;;;-9.40;74.88;99034.78;8389621;28;20114;-85
2021/12/27 03:14:10;;;;;;;95.82;23.88;;;;;;;-9.36;74.77;99036.06;8387099;28;20053;-84
2021/12/27 03:18:11;;;;;;;91.95;24.55;;;;;;;-9.36;75.16;99036.06;8390661;28;20139;-88
2021/12/27 03:22:12;;;;;;;99.55;23.50;;;;;;;-9.39;75.29;99036.41;8434390;28;20048;-83
2021/12/27 03:26:13;;;;;;;95.18;22.63;;;;;;;-9.41;75.97;99033.19;8428576;28;20060;-86
2021/12/27 03:30:25;;;;;;;81.10;22.77;;;;;;;-9.38;75.94;99032.81;8436675;28;20383;-85
2021/12/27 03:34:25;;;;;;;83.78;23.67;;;;;;;-9.42;76.15;99036.78;8413543;28;20052;-84
2021/12/27 03:38:29;;;;;;;104.80;24.88;;;;;;;-9.48;76.10;99029.69;8426880;28;20060;-85
2021/12/27 03:42:29;;;;;;;113.43;25.58;;;;;;;-9.52;76.17;99031.03;8397460;28;20052;-84
2021/12/27 03:46:30;;;;;;;105.95;27.13;;;;;;;-9.61;76.52;99026.88;8449857;28;20097;-87
2021/12/27 03:50:32;;;;;;;100.43;25.55;;;;;;;-9.68;76.73;99031.22;8432879;28;20425;-85
2021/12/27 03:54:32;;;;;;;113.45;27.15;;;;;;;-9.73;77.20;99029.16;8432372;28;20052;-82
2021/12/27 03:58:45;;;;;;;105.72;25.95;;;;;;;-9.75;77.23;99030.31;8431067;28;20052;-83
2021/12/27 04:02:47;;;;;;;97.00;24.38;;;;;;;-9.72;76.79;99029.94;8403969;28;20067;-88
2021/12/27 04:06:48;;;;;;;116.88;25.30;;;;;;;-9.75;77.12;99025.09;8384130;28;20060;-85
2021/12/27 04:10:49;;;;;;;104.28;27.10;;;;;;;-9.72;77.36;99029.94;8395086;28;20071;-86
2021/12/27 04:14:49;;;;;;;102.60;26.45;;;;;;;-9.71;77.34;99031.56;8406637;28;20060;-83
2021/12/27 04:18:50;;;;;;;107.72;26.65;;;;;;;-9.74;76.88;99029.34;8394952;28;20053;-84
2021/12/27 04:22:51;;;;;;;89.10;24.90;;;;;;;-9.77;77.32;99027.06;8395012;28;21233;-82
2021/12/27 04:26:52;;;;;;;103.18;25.95;;;;;;;-9.75;77.57;99025.09;8402830;28;20052;-88
2021/12/27 04:30:53;;;;;;;103.35;26.08;;;;;;;-9.69;77.20;99019.16;8393766;28;20147;-84
2021/12/27 04:34:54;;;;;;;94.65;25.85;;;;;;;-9.66;77.50;99008.31;8397707;28;20075;-88
2021/12/27 04:38:54;;;;;;;76.20;23.10;;;;;;;-9.65;77.90;99009.94;8414750;28;20053;-87
2021/12/27 04:43:03;;;;;;;99.07;24.27;;;;;;;-9.58;77.69;99016.06;8398074;28;20721;-89
2021/12/27 04:47:04;;;;;;;99.82;25.42;;;;;;;-9.61;77.82;99021.66;8397857;28;20068;-85
2021/12/27 04:51:05;;;;;;;88.60;24.80;;;;;;;-9.59;77.67;99009.22;8421781;28;20044;-87
2021/12/27 04:55:06;;;;;;;102.57;26.35;;;;;;;-9.70;78.20;99007.06;8387756;28;20059;-85
2021/12/27 04:59:07;;;;;;;102.40;24.52;;;;;;;-9.76;78.25;99002.56;8388938;28;20048;-84
2021/12/27 05:03:08;;;;;;;102.47;26.25;;;;;;;-9.79;78.22;98997.72;8378233;28;20105;-86
2021/12/27 05:07:09;;;;;;;105.10;25.95;;;;;;;-9.72;77.84;98998.59;8395825;28;20040;-86
2021/12/27 05:11:10;;;;;;;106.95;26.40;;;;;;;-9.73;78.04;99002.22;8406349;28;20185;-88
2021/12/27 05:15:11;;;;;;;90.15;25.02;;;;;;;-9.73;77.97;99010.06;8411950;28;20148;-86
2021/12/27 05:19:12;;;;;;;99.07;25.50;;;;;;;-9.73;78.00;99002.22;8430269;28;20047;-86
2021/12/27 05:23:13;;;;;;;101.28;25.65;;;;;;;-9.74;78.44;99003.22;8430337;28;20044;-82
2021/12/27 05:27:14;;;;;;;102.18;23.60;;;;;;;-9.69;78.27;98999.06;8437175;28;20393;-86
2021/12/27 05:31:15;;;;;;;77.10;20.88;;;;;;;-9.60;78.43;98997.16;8429703;28;20067;-83
2021/12/27 05:35:16;;;;;;;79.80;22.95;;;;;;;-9.55;78.57;98989.56;8428487;28;20075;-87
2021/12/27 05:39:19;;;;;;;95.45;22.60;;;;;;;-9.47;78.80;98984.25;8428585;28;20043;-85
2021/12/27 05:43:21;;;;;;;98.32;22.25;;;;;;;-9.34;78.33;98976.53;8454488;28;20036;-88
2021/12/27 05:47:22;;;;;;;102.82;24.52;;;;;;;-9.40;79.20;98980.69;8439728;28;20044;-83
2021/12/27 05:51:23;;;;;;;78.93;21.83;;;;;;;-9.43;78.75;98975.03;8427188;28;20412;-88
2021/12/27 05:55:24;;;;;;;89.60;22.98;;;;;;;-9.52;79.04;98968.31;8451855;28;20059;-85
2021/12/27 05:59:24;;;;;;;99.90;25.52;;;;;;;-9.57;78.68;98981.13;8428364;28;20390;-89
2021/12/27 06:03:25;;;;;;;96.35;24.48;;;;;;;-9.61;79.12;98974.59;8426695;28;20051;-88
2021/12/27 06:07:26;;;;;;;83.75;23.20;;;;;;;-9.63;78.97;98976.59;8426660;28;20058;-87
2021/12/27 06:11:27;;;;;;;103.35;24.95;;;;;;;-9.68;78.99;98973.72;8429367;28;20040;-87
2021/12/27 06:15:28;;;;;;;98.85;24.10;;;;;;;-9.73;79.40;98965.63;8469535;27;20177;-83
2021/12/27 06:19:29;;;;;;;86.55;23.88;;;;;;;-9.74;79.27;98970.03;8460189;28;20100;-87
2021/12/27 06:23:30;;;;;;;94.72;23.98;;;;;;;-9.82;79.53;98978.78;8410137;28;20403;-92
2021/12/27 06:27:32;;;;;;;67.82;18.75;;;;;;;-9.78;79.28;98962.75;8479315;27;20044;-85
2021/12/27 06:31:32;;;;;;;100.65;23.55;;;;;;;-9.87;80.06;98949.78;8462054;28;20164;-84
2021/12/27 06:35:33;;;;;;;84.47;21.63;;;;;;;-9.82;79.54;98957.88;8460570;28;20073;-86
2021/12/27 06:39:34;;;;;;;87.82;24.52;;;;;;;-9.89;79.87;98967.47;8460817;28;20169;-85
2021/12/27 06:43:35;;;;;;;85.05;24.02;;;;;;;-9.93;80.21;98965.38;8463127;28;20048;-91
2021/12/27 06:47:36;;;;;;;104.07;24.52;;;;;;;-9.92;80.12;98973.03;8438540;28;20412;-86
2021/12/27 06:51:37;;;;;;;93.22;23.73;;;;;;;-9.96;80.29;98966.56;8442252;28;20047;-84
2021/12/27 06:55:38;;;;;;;93.53;23.92;;;;;;;-9.98;80.23;98963.28;8460313;28;20073;-88
2021/12/27 06:59:39;;;;;;;94.07;22.40;;;;;;;-9.94;80.36;98969.78;8461015;28;20151;-82
2021/12/27 07:03:39;;;;;;;78.55;23.05;;;;;;;-9.94;80.34;98985.44;8407365;28;20431;-86
2021/12/27 07:07:41;;;;;;;80.25;23.35;;;;;;;-9.94;80.66;98975.00;8411636;27;20079;-91
2021/12/27 07:11:42;;;;;;;83.40;21.67;;;;;;;-9.96;80.62;98963.94;8480211;27;20056;-87
2021/12/27 07:15:44;;;;;;;94.50;24.08;;;;;;;-9.87;80.53;98965.44;8486621;27;20080;-85
2021/12/27 07:19:45;;;;;;;85.75;23.92;;;;;;;-9.85;80.85;98979.16;8432301;28;20039;-84
2021/12/27 07:23:46;;;;;;;84.18;24.05;;;;;;;-9.85;81.45;98973.13;8484100;27;20048;-90
2021/12/27 07:27:46;;;;;;;108.65;25.23;;;;;;;-9.71;80.82;98968.84;8465498;27;20069;-87
2021/12/27 07:31:48;;;;;;;103.75;28.33;;;;;;;-9.71;81.30;98963.63;8470741;27;20047;-87
2021/12/27 07:35:48;;;;;;;105.28;24.15;;;;;;;-9.64;81.33;98959.31;8442190;27;20088;-86
2021/12/27 07:39:49;;;;;;;93.63;26.00;;;;;;;-9.58;80.91;98963.81;8450671;27;20059;-90
2021/12/27 07:43:50;;;;;;;95.30;24.25;;;;;;;-9.51;80.91;98959.44;8468530;28;20036;-86
2021/12/27 07:47:51;;;;;;;102.93;25.65;;;;;;;-9.43;80.56;98952.31;8456618;27;20039;-85
2021/12/27 07:51:52;;;;;;;95.55;25.15;;;;;;;-9.38;80.66;98949.13;8493696;27;20039;-85
2021/12/27 07:55:53;;;;;;;84.60;26.42;;;;;;;-9.33;80.53;98954.63;8459213;27;20096;-88
2021/12/27 07:59:54;;;;;;;87.65;24.75;;;;;;;-9.28;80.81;98949.66;8437853;28;20035;-84
2021/12/27 08:03:54;;;;;;;105.88;29.00;;;;;;;-9.19;81.21;98953.75;8449158;28;20404;-84
2021/12/27 08:07:55;;;;;;;104.07;29.15;;;;;;;-9.08;80.88;98945.41;8468367;27;20446;-84
2021/12/27 08:11:56;;;;;;;94.95;27.90;;;;;;;-9.12;81.03;98954.63;8476223;27;20050;-88
2021/12/27 08:15:57;;;;;;;98.25;27.05;;;;;;;-9.02;81.11;98960.38;8449894;27;20051;-83
2021/12/27 08:19:58;;;;;;;84.85;25.75;;;;;;;-8.91;80.59;98950.38;8415186;22;20061;-76
2021/12/27 08:24:00;;;;;;;103.85;26.70;;;;;;;-8.75;80.23;98934.44;8275229;28;20042;-78
2021/12/27 08:28:01;;;;;;;109.47;30.27;;;;;;;-8.63;79.91;98932.91;8297500;28;20049;-80
2021/12/27 08:32:03;;;;;;;99.70;26.25;;;;;;;-8.53;79.60;98922.91;8298548;28;20124;-77
2021/12/27 08:36:05;;;;;;;97.10;27.08;;;;;;;-8.50;80.21;98927.75;8297034;28;20053;-76
2021/12/27 08:40:07;;;;;;;96.80;25.02;;;;;;;-8.36;80.17;98924.25;8307428;28;20053;-77
2021/12/27 08:44:08;;;;;;;91.80;26.33;;;;;;;-8.18;79.81;98927.13;8296274;28;20050;-80
2021/12/27 08:48:08;;;;;;;91.55;25.40;;;;;;;-8.05;80.12;98920.34;8296457;28;20054;-75
2021/12/27 08:52:09;;;;;;;86.90;26.88;;;;;;;-7.92;79.61;98926.44;8295074;28;20510;-80
2021/12/27 08:56:10;;;;;;;94.03;25.45;;;;;;;-7.78;79.39;98922.09;8293775;28;20079;-77
2021/12/27 09:00:14;;;;;;;97.50;25.05;;;;;;;-7.77;79.31;98929.75;8292280;28;20513;-77
2021/12/27 09:04:15;;;;;;;102.30;27.52;;;;;;;-7.72;79.33;98910.84;8293865;28;21353;-77
2021/12/27 09:08:16;;;;;;;90.78;27.33;;;;;;;-7.70;79.42;98919.28;8295788;28;20089;-77
2021/12/27 09:12:17;;;;;;;95.20;28.95;;;;;;;-7.64;79.79;98913.25;8293005;28;20413;-77
2021/12/27 09:16:17;;;;;;;99.88;29.80;;;;;;;-7.67;80.24;98924.16;8296608;28;20048;-77
2021/12/27 09:20:18;;;;;;;105.00;28.65;;;;;;;-7.62;80.47;98900.78;8278756;28;20066;-77
2021/12/27 09:24:20;;;;;;;106.75;29.35;;;;;;;-7.49;80.41;98911.28;8291512;28;20038;-77
2021/12/27 09:28:20;;;;;;;94.53;27.42;;;;;;;-7.32;80.04;98912.53;8296237;28;20065;-76
2021/12/27 09:32:21;;;;;;;108.00;31.33;;;;;;;-7.22;80.06;98903.47;8294662;28;20068;-80
2021/12/27 09:36:22;;;;;;;105.50;30.70;;;;;;;-7.17;79.92;98893.19;8296936;28;20472;-77
2021/12/27 09:40:23;;;;;;;112.53;30.48;;;;;;;-6.94;79.51;98888.38;8306756;28;20054;-79
2021/12/27 09:44:24;;;;;;;101.25;28.17;;;;;;;-6.76;78.86;98880.69;8296521;28;20096;-80
2021/12/27 09:48:24;;;;;;;96.00;28.27;;;;;;;-6.67;79.22;98868.97;8295977;28;20084;-80
2021/12/27 09:52:26;;;;;;;94.25;27.17;;;;;;;-6.55;78.80;98851.56;8297767;28;20138;-78
2021/12/27 09:56:27;;;;;;;95.60;29.08;;;;;;;-6.46;78.99;98845.09;8297108;28;20053;-79
2021/12/27 10:00:28;;;;;;;82.80;24.00;;;;;;;-6.47;78.67;98838.22;8295693;28;20065;-79
2021/12/27 10:04:29;;;;;;;96.80;26.70;;;;;;;-6.45;78.49;98824.88;8291323;28;20493;-78
2021/12/27 10:08:32;;;;;;;94.43;28.75;;;;;;;-6.43;78.86;98818.41;8297355;28;20107;-80
2021/12/27 10:12:34;;;;;;;98.15;26.13;;;;;;;-6.29;78.17;98828.88;8297036;28;20049;-80
2021/12/27 10:16:45;;;;;;;98.03;29.65;;;;;;;-6.24;78.29;98834.31;8294893;28;20034;-82
2021/12/27 10:20:46;;;;;;;104.80;31.15;;;;;;;-6.24;78.51;98836.94;8293654;28;20064;-81
2021/12/27 10:24:53;;;;;;;100.53;31.35;;;;;;;-6.27;78.65;98837.34;8295312;28;20039;-79
2021/12/27 10:29:07;;;;;;;97.47;29.05;;;;;;;-6.21;78.48;98820.75;8295283;28;20405;-78
2021/12/27 10:33:20;;;;;;;97.15;27.85;;;;;;;-6.00;77.68;98817.84;8295549;28;20055;-80
2021/12/27 10:37:22;;;;;;;117.80;30.98;;;;;;;-5.97;77.97;98812.16;8306231;28;20088;-83
2021/12/27 10:41:23;;;;;;;113.75;30.67;;;;;;;-5.88;78.01;98803.03;8294746;28;20096;-83
2021/12/27 10:45:24;;;;;;;98.93;27.88;;;;;;;-5.75;77.38;98795.00;8299258;28;20516;-79
2021/12/27 10:49:44;;;;;;;108.57;29.83;;;;;;;-5.68;77.49;98789.72;8304513;28;20037;-79
2021/12/27 10:53:59;;;;;;;107.82;32.00;;;;;;;-5.67;77.24;98793.97;8308015;28;20042;-76
2021/12/27 10:58:25;;;;;;;100.43;30.70;;;;;;;-5.66;77.65;98788.47;8305007;28;20385;-76
2021/12/27 11:02:32;;;;;;;109.90;32.75;;;;;;;-5.54;77.41;98781.50;8299159;28;20046;-77
2021/12/27 11:06:36;;;;;;;107.53;32.73;;;;;;;-5.52;77.88;98778.69;8296810;28;20101;-78
2021/12/27 11:10:37;;;;;;;110.93;32.15;;;;;;;-5.38;77.72;98784.63;8304718;28;20301;-77
2021/12/27 11:14:38;;;;;;;104.72;32.63;;;;;;;-5.34;78.21;98775.31;8302708;28;20492;-78
2021/12/27 11:18:40;;;;;;;100.25;29.27;;;;;;;-5.19;78.17;98767.91;8312548;28;20509;-78
2021/12/27 11:22:44;;;;;;;96.35;29.80;;;;;;;-5.17;78.23;98771.09;8294409;28;20065;-79
2021/12/27 11:26:45;;;;;;;109.00;33.08;;;;;;;-5.07;78.13;98750.34;8313676;28;20054;-80
2021/12/27 11:30:46;;;;;;;117.43;33.45;;;;;;;-5.05;78.07;98758.84;8306055;28;20119;-76
2021/12/27 11:34:53;;;;;;;112.30;32.80;;;;;;;-5.06;78.64;98761.69;8292645;28;20170;-78
2021/12/27 11:38:54;;;;;;;108.43;32.65;;;;;;;-4.95;78.58;98764.44;8323379;28;20065;-80
2021/12/27 11:43:00;;;;;;;111.15;32.03;;;;;;;-4.89;78.78;98768.84;8306391;28;20053;-76
2021/12/27 11:47:01;;;;;;;101.45;31.27;;;;;;;-4.78;78.35;98770.75;8300482;28;20104;-77
2021/12/27 11:51:04;;;;;;;111.22;32.55;;;;;;;-4.82;79.23;98764.31;8299836;28;20065;-78
2021/12/27 11:55:14;;;;;;;96.10;29.08;;;;;;;-4.65;78.89;98769.03;8314231;28;20478;-76
2021/12/27 11:59:28;;;;;;;72.63;24.92;;;;;;;-4.61;78.82;98754.38;8291919;28;20074;-76
2021/12/27 12:03:41;;;;;;;88.50;27.70;;;;;;;-4.49;78.62;98752.59;8294762;28;20052;-78
2021/12/27 12:07:41;;;;;;;96.57;27.55;;;;;;;-4.42;78.57;98742.78;8300702;28;20053;-77
2021/12/27 12:11:44;;;;;;;79.85;26.08;;;;;;;-4.37;78.39;98746.38;8300091;28;20482;-80
2021/12/27 12:16:02;;;;;;;92.88;27.83;;;;;;;-4.34;78.44;98750.41;8298247;28;20046;-76
2021/12/27 12:20:04;;;;;;;84.23;27.67;;;;;;;-4.28;78.26;98744.22;8298711;28;20041;-76
2021/12/27 12:24:25;;;;;;;92.90;28.58;;;;;;;-4.27;78.15;98732.66;8264487;28;20092;-77
2021/12/27 12:28:27;;;;;;;87.03;28.00;;;;;;;-4.22;78.63;98738.06;8299028;28;20042;-77
2021/12/27 12:32:28;;;;;;;90.40;29.50;;;;;;;-4.25;78.62;98743.81;8280365;28;20053;-76
2021/12/27 12:36:29;;;;;;;92.88;29.38;;;;;;;-4.24;78.80;98755.97;8296271;28;20038;-76
2021/12/27 12:40:30;;;;;;;96.90;30.92;;;;;;;-4.08;78.60;98755.34;8298261;28;20061;-76
2021/12/27 12:44:30;;;;;;;96.35;29.40;;;;;;;-3.70;78.47;98746.31;8296492;28;20045;-75
2021/12/27 12:48:31;;;;;;;95.75;28.77;;;;;;;-3.52;77.38;98738.31;8298198;28;20093;-75
2021/12/27 12:52:32;;;;;;;84.68;24.48;;;;;;;-3.44;77.42;98736.13;8306093;28;20136;-76
2021/12/27 12:56:35;;;;;;;81.70;27.10;;;;;;;-3.13;77.32;98727.13;8301109;28;20053;-76
2021/12/27 13:00:36;;;;;;;74.20;25.15;;;;;;;-2.91;76.74;98729.19;8295904;28;20050;-75
2021/12/27 13:05:00;;;;;;;88.32;26.85;;;;;;;-2.86;75.42;98727.44;8294276;28;20050;-76
2021/12/27 13:09:04;;;;;;;84.60;27.30;;;;;;;-2.51;75.69;98724.75;8259939;28;20727;-75
2021/12/27 13:13:14;;;;;;;86.03;29.67;;;;;;;-2.05;73.93;98729.06;8260023;28;20046;-76
2021/12/27 13:17:28;;;;;;;94.03;29.20;;;;;;;-1.94;72.78;98725.56;8262236;28;20501;-77
2021/12/27 13:21:29;;;;;;;88.65;30.65;;;;;;;-2.00;72.35;98720.41;8263781;28;20522;-76
2021/12/27 13:25:39;;;;;;;84.80;28.65;;;;;;;-1.85;72.75;98712.78;8260540;28;20046;-77
2021/12/27 13:29:41;;;;;;;103.60;33.15;;;;;;;-1.86;71.87;98711.19;8258208;28;20100;-76
2021/12/27 13:33:46;;;;;;;89.85;32.97;;;;;;;-1.96;72.09;98716.28;8260113;28;20059;-78
2021/12/27 13:37:47;;;;;;;83.07;29.63;;;;;;;-2.20;72.23;98716.38;8259163;28;20536;-76
2021/12/27 13:42:01;;;;;;;91.25;30.20;;;;;;;-2.99;73.39;98723.19;8258097;28;20057;-76
2021/12/27 13:46:10;;;;;;;92.80;30.63;;;;;;;-3.38;74.22;98729.13;8277331;28;20064;-77
2021/12/27 13:50:11;;;;;;;80.97;28.15;;;;;;;-3.70;75.01;98735.75;8294603;28;20461;-77
2021/12/27 13:54:15;;;;;;;94.32;28.95;;;;;;;-3.96;75.71;98737.72;8258873;28;20057;-74
2021/12/27 13:58:21;;;;;;;108.85;31.13;;;;;;;-4.06;75.85;98734.81;8306979;28;20054;-76
2021/12/27 14:02:22;;;;;;;88.75;29.90;;;;;;;-4.19;76.20;98732.38;8289469;28;20049;-76
2021/12/27 14:06:23;;;;;;;99.28;31.35;;;;;;;-4.25;77.00;98738.53;8294519;28;20419;-78
2021/12/27 14:10:24;;;;;;;99.93;28.67;;;;;;;-4.32;77.53;98727.25;8290435;28;20042;-76
2021/12/27 14:14:45;;;;;;;89.95;30.75;;;;;;;-4.29;77.59;98724.19;8298076;28;20448;-76
2021/12/27 14:19:14;;;;;;;93.43;29.65;;;;;;;-4.36;77.55;98726.09;8313444;28;20050;-78
2021/12/27 14:37:41;;;;;;;132.40;40.33;;;;;;;-4.71;79.91;98713.53;8491002;27;1334502;-74
2021/12/27 14:41:42;;;;;;;106.18;32.53;;;;;;;-4.72;79.84;98716.38;8497086;27;20039;-74
2021/12/27 14:45:43;;;;;;;101.80;31.38;;;;;;;-4.73;79.79;98720.84;8523942;27;20117;-74
2021/12/27 14:49:45;;;;;;;90.68;28.98;;;;;;;-4.78;79.79;98723.34;8504206;27;20047;-74
2021/12/27 14:53:46;;;;;;;88.18;26.38;;;;;;;-4.87;80.20;98708.84;8501828;27;20043;-74
2021/12/27 14:57:48;;;;;;;101.22;29.15;;;;;;;-4.89;80.71;98710.88;8519243;27;20115;-73
2021/12/27 15:01:48;;;;;;;97.93;30.08;;;;;;;-4.96;80.95;98704.06;8495842;27;20047;-73
2021/12/27 15:05:49;;;;;;;94.45;29.63;;;;;;;-5.02;80.86;98697.84;8519759;27;20042;-74
2021/12/27 15:09:50;;;;;;;68.13;23.10;;;;;;;-5.04;81.26;98697.28;8521993;27;20047;-74
2021/12/27 15:13:51;;;;;;;92.95;29.23;;;;;;;-5.08;81.75;98706.66;8496931;27;20047;-72
2021/12/27 15:17:52;;;;;;;102.75;29.02;;;;;;;-5.07;81.79;98702.97;8506747;27;20072;-71
2021/12/27 15:21:54;;;;;;;93.15;28.83;;;;;;;-5.07;81.72;98702.97;8493899;27;20482;-73
2021/12/27 15:25:54;;;;;;;94.40;28.13;;;;;;;-5.08;82.09;98696.13;8516054;27;20109;-74
2021/12/27 15:29:55;;;;;;;94.32;28.67;;;;;;;-5.17;82.49;98697.41;8518428;27;20494;-73
2021/12/27 15:33:56;;;;;;;79.63;23.65;;;;;;;-5.15;82.87;98700.63;8486356;27;20567;-74
2021/12/27 15:37:57;;;;;;;104.50;30.58;;;;;;;-5.17;83.12;98694.75;8493112;27;20047;-74
2021/12/27 15:41:58;;;;;;;94.15;29.55;;;;;;;-5.17;83.00;98702.66;8493920;27;20039;-75
2021/12/27 15:46:00;;;;;;;86.70;28.02;;;;;;;-5.11;83.02;98707.88;8467544;27;20039;-77
2021/12/27 15:50:01;;;;;;;87.57;27.90;;;;;;;-5.23;83.40;98708.78;8489217;27;20039;-76
2021/12/27 15:54:02;;;;;;;87.05;28.30;;;;;;;-5.14;83.24;98710.13;8496243;27;20115;-76
2021/12/27 15:58:03;;;;;;;91.35;28.92;;;;;;;-5.21;83.46;98712.03;8489120;27;20096;-77
2021/12/27 16:02:04;;;;;;;102.15;30.58;;;;;;;-5.25;83.72;98710.84;8473020;27;20043;-76
2021/12/27 16:06:06;;;;;;;93.70;28.95;;;;;;;-5.36;84.03;98703.66;8430424;27;20399;-76
2021/12/27 16:10:07;;;;;;;96.78;28.95;;;;;;;-5.33;84.14;98703.22;8479430;27;20039;-78
2021/12/27 16:14:08;;;;;;;93.25;27.38;;;;;;;-5.42;84.33;98688.72;8488848;27;20528;-77
2021/12/27 16:18:09;;;;;;;99.45;28.35;;;;;;;-5.39;84.24;98685.69;8492266;27;20062;-76
2021/12/27 16:22:10;;;;;;;79.80;25.58;;;;;;;-5.37;84.14;98688.88;8486775;27;20126;-76
2021/12/27 16:26:14;;;;;;;99.03;29.60;;;;;;;-5.25;83.81;98674.00;8493129;27;20088;-75
2021/12/27 16:30:16;;;;;;;79.55;24.15;;;;;;;-5.28;83.73;98674.41;8495695;27;20054;-76
2021/12/27 16:34:17;;;;;;;87.20;27.67;;;;;;;-5.29;83.89;98667.56;8495167;27;20517;-75
2021/12/27 16:38:21;;;;;;;83.38;26.13;;;;;;;-5.37;84.02;98666.00;8477086;27;20039;-75
2021/12/27 16:42:22;;;;;;;86.70;25.67;;;;;;;-5.44;84.32;98656.56;8488139;27;20457;-75
2021/12/27 16:46:24;;;;;;;88.53;27.10;;;;;;;-5.51;84.08;98663.72;8469014;27;20046;-75
2021/12/27 16:50:26;;;;;;;91.38;27.23;;;;;;;-5.74;84.95;98659.84;8413662;27;20417;-74
2021/12/27 16:54:31;;;;;;;79.70;27.73;;;;;;;-5.84;85.37;98664.78;8493042;27;20547;-77
2021/12/27 16:58:32;;;;;;;93.18;27.52;;;;;;;-5.87;85.03;98665.28;8480484;27;20048;-74
2021/12/27 17:02:33;;;;;;;85.82;27.88;;;;;;;-5.93;85.10;98671.38;8482148;27;20048;-74
2021/12/27 17:06:34;;;;;;;93.45;27.05;;;;;;;-6.05;85.23;98675.69;8491358;27;20051;-78
2021/12/27 17:10:35;;;;;;;104.82;30.48;;;;;;;-6.11;85.48;98684.44;8489717;27;20046;-75
2021/12/27 17:14:40;;;;;;;100.25;27.85;;;;;;;-6.16;85.95;98681.63;8434670;27;20058;-76
2021/12/27 17:18:45;;;;;;;93.68;29.65;;;;;;;-6.24;85.77;98684.53;8496067;27;20047;-73
2021/12/27 17:22:46;;;;;;;90.93;27.02;;;;;;;-6.30;86.19;98695.88;8494100;27;20130;-74
2021/12/27 17:26:46;;;;;;;81.25;27.23;;;;;;;-6.32;85.87;98690.00;8487500;27;20437;-76
2021/12/27 17:30:48;;;;;;;93.20;27.58;;;;;;;-6.41;85.86;98706.03;8448812;27;20050;-74
2021/12/27 17:34:49;;;;;;;85.55;26.73;;;;;;;-6.34;85.54;98694.69;8477431;27;20138;-75
2021/12/27 17:38:50;;;;;;;97.57;29.50;;;;;;;-6.44;85.86;98695.94;8489638;27;20047;-78
2021/12/27 17:42:51;;;;;;;99.95;27.38;;;;;;;-6.48;86.06;98700.00;8479346;27;20506;-76
2021/12/27 17:46:54;;;;;;;91.90;27.15;;;;;;;-6.52;85.94;98677.78;8482123;27;20452;-76
2021/12/27 17:50:55;;;;;;;99.82;28.45;;;;;;;-6.52;85.85;98675.16;8475473;27;20035;-80
2021/12/27 17:54:56;;;;;;;88.95;27.27;;;;;;;-6.56;86.05;98681.06;8493163;27;20058;-76
2021/12/27 17:58:57;;;;;;;89.90;26.15;;;;;;;-6.55;86.07;98672.94;8437350;27;20054;-76
2021/12/27 18:02:58;;;;;;;92.60;27.95;;;;;;;-6.62;86.35;98682.69;8474408;27;20122;-75
2021/12/27 18:06:59;;;;;;;95.60;26.92;;;;;;;-6.64;86.25;98683.91;8489766;27;20062;-76
2021/12/27 18:11:01;;;;;;;89.13;26.33;;;;;;;-6.67;86.27;98695.66;8446285;27;20504;-75
2021/12/27 18:15:05;;;;;;;83.47;24.45;;;;;;;-6.68;86.61;98694.03;8419602;27;20043;-81
2021/12/27 18:19:07;;;;;;;94.00;26.58;;;;;;;-6.65;86.43;98698.84;8482843;27;20082;-82
2021/12/27 18:23:09;;;;;;;86.65;26.20;;;;;;;-6.67;86.36;98698.28;8480199;27;20175;-76
2021/12/27 18:27:10;;;;;;;90.32;25.65;;;;;;;-6.70;86.48;98685.53;8467312;28;20093;-75
2021/12/27 18:31:13;;;;;;;78.75;24.40;;;;;;;-6.76;86.61;98686.38;8477584;28;20160;-79
2021/12/27 18:35:14;;;;;;;83.18;27.30;;;;;;;-6.69;86.46;98681.91;8481597;28;20050;-79
2021/12/27 18:39:15;;;;;;;90.18;27.30;;;;;;;-6.74;86.71;98684.34;8487032;28;20080;-75
2021/12/27 18:43:17;;;;;;;84.35;26.35;;;;;;;-6.73;86.94;98685.97;8463134;28;20035;-75
2021/12/27 18:47:17;;;;;;;76.57;21.30;;;;;;;-6.65;86.53;98672.59;8481298;28;20494;-75